Time;durP1;ratioP1;P1;durP2;ratioP2;P2;SDS_P1;SDS_P2;PMS_P1;PMS_P2;Temp;Humidity;BMP_temperature;BMP_pressure;BME280_temperature;BME280_humidity;BME280_pressure;Samples;Min_cycle;Max_cycle;Signal;HPM_P1;HPM_P2
2023/02/10 00:00:56;;;;;;;1.60;1.50;;;4.10;98.20;;;;;;5082262;28;20469;-72
2023/02/10 00:03:23;;;;;;;1.57;1.30;;;4.10;98.20;;;;;;5086229;28;20979;-72
2023/02/10 00:05:50;;;;;;;1.57;1.40;;;4.10;98.20;;;;;;5091376;28;20504;-72
2023/02/10 00:08:17;;;;;;;2.30;2.10;;;4.10;98.20;;;;;;5089048;28;20478;-72
2023/02/10 00:10:45;;;;;;;1.57;1.30;;;4.10;98.20;;;;;;5106774;28;20485;-72
2023/02/10 00:13:12;;;;;;;1.50;1.30;;;4.10;98.20;;;;;;5076969;28;22320;-72
2023/02/10 00:15:39;;;;;;;1.60;1.40;;;4.10;98.20;;;;;;5093500;28;20484;-72
2023/02/10 00:18:06;;;;;;;1.60;1.40;;;4.10;98.20;;;;;;5069139;28;20477;-72
2023/02/10 00:20:33;;;;;;;1.57;1.30;;;4.10;98.20;;;;;;5101232;28;20944;-72
2023/02/10 00:22:59;;;;;;;1.60;1.43;;;4.10;98.20;;;;;;5071765;28;20563;-73
2023/02/10 00:25:26;;;;;;;1.57;1.40;;;4.10;98.20;;;;;;5099306;28;20477;-72
2023/02/10 00:27:54;;;;;;;2.33;2.13;;;4.10;98.20;;;;;;5092664;28;20571;-72
2023/02/10 00:30:21;;;;;;;1.60;1.40;;;4.10;98.20;;;;;;5100991;28;20546;-72
2023/02/10 00:32:48;;;;;;;1.60;1.50;;;4.10;98.20;;;;;;5088019;28;20484;-72
2023/02/10 00:35:15;;;;;;;1.60;1.37;;;4.10;98.20;;;;;;5102117;28;20687;-73
2023/02/10 00:37:42;;;;;;;1.60;1.40;;;4.10;98.20;;;;;;5071301;28;20476;-72
2023/02/10 00:40:10;;;;;;;1.60;1.40;;;4.10;98.20;;;;;;5097986;28;20451;-72
2023/02/10 00:42:37;;;;;;;1.57;1.40;;;4.10;98.20;;;;;;5080431;28;20482;-72
2023/02/10 00:45:06;;;;;;;1.50;1.30;;;4.10;98.20;;;;;;5106166;28;20573;-72
2023/02/10 00:47:32;;;;;;;1.60;1.40;;;4.00;98.20;;;;;;5070731;28;20866;-73
2023/02/10 00:49:59;;;;;;;1.60;1.40;;;4.00;98.20;;;;;;5094824;28;20464;-72
2023/02/10 00:52:26;;;;;;;1.60;1.30;;;4.00;98.20;;;;;;5081416;28;20874;-72
2023/02/10 00:54:53;;;;;;;1.60;1.50;;;4.00;98.20;;;;;;5095664;28;20547;-72
2023/02/10 00:57:20;;;;;;;1.57;1.40;;;4.10;98.20;;;;;;5071367;28;20487;-72
2023/02/10 00:59:47;;;;;;;1.57;1.40;;;4.10;98.20;;;;;;5099387;28;20898;-72
2023/02/10 01:02:15;;;;;;;1.60;1.30;;;4.10;98.20;;;;;;5095901;28;20479;-72
2023/02/10 01:04:42;;;;;;;1.60;1.40;;;4.10;98.20;;;;;;5102522;28;20456;-72
2023/02/10 01:07:09;;;;;;;1.57;1.33;;;4.10;98.20;;;;;;5095799;28;20471;-72
2023/02/10 01:09:36;;;;;;;1.70;1.60;;;4.00;98.20;;;;;;5103313;28;20470;-73
2023/02/10 01:12:03;;;;;;;1.60;1.43;;;4.10;98.20;;;;;;5080502;28;21484;-72
2023/02/10 01:14:31;;;;;;;1.57;1.30;;;4.10;98.20;;;;;;5095403;28;20460;-72
2023/02/10 01:16:57;;;;;;;1.60;1.50;;;4.10;98.20;;;;;;5085459;28;20562;-72
2023/02/10 01:19:26;;;;;;;1.60;1.40;;;4.10;98.20;;;;;;5094894;28;20460;-72
2023/02/10 01:21:53;;;;;;;1.60;1.40;;;4.10;98.20;;;;;;5083481;28;20593;-72
2023/02/10 01:24:20;;;;;;;1.60;1.37;;;4.10;98.20;;;;;;5095819;28;20914;-73
2023/02/10 01:26:47;;;;;;;1.60;1.50;;;4.10;98.20;;;;;;5090890;28;21008;-72
2023/02/10 01:29:13;;;;;;;1.60;1.40;;;4.10;98.20;;;;;;5109966;28;20463;-72
2023/02/10 01:31:40;;;;;;;1.57;1.30;;;4.10;98.20;;;;;;5092999;28;20907;-72
2023/02/10 01:34:07;;;;;;;1.60;1.40;;;4.10;98.20;;;;;;5099880;28;20485;-72
2023/02/10 01:36:36;;;;;;;1.50;1.30;;;4.10;98.20;;;;;;5087973;28;20487;-72
2023/02/10 01:39:03;;;;;;;1.60;1.40;;;4.10;98.20;;;;;;5108689;28;20460;-72
2023/02/10 01:41:30;;;;;;;1.60;1.50;;;4.10;98.20;;;;;;5092629;28;20484;-72
2023/02/10 01:44:01;;;;;;;1.60;1.40;;;4.10;98.20;;;;;;5102358;28;20490;-72
2023/02/10 01:46:29;;;;;;;1.53;1.30;;;4.10;98.20;;;;;;5097672;28;21585;-72
2023/02/10 01:48:58;;;;;;;1.57;1.30;;;4.10;98.20;;;;;;5100395;28;20459;-72
2023/02/10 01:51:32;;;;;;;1.60;1.40;;;4.10;98.20;;;;;;5098283;28;20513;-72
2023/02/10 01:54:00;;;;;;;1.60;1.50;;;4.10;98.20;;;;;;5107420;28;20482;-73
2023/02/10 01:56:27;;;;;;;1.60;1.40;;;4.10;98.20;;;;;;5090761;28;20511;-72
2023/02/10 01:58:54;;;;;;;1.50;1.30;;;4.10;98.20;;;;;;5109144;28;20487;-72
2023/02/10 02:01:21;;;;;;;1.60;1.40;;;4.10;98.20;;;;;;5092962;28;20492;-72
2023/02/10 02:03:48;;;;;;;1.57;1.40;;;4.10;98.20;;;;;;5101141;28;20563;-72
2023/02/10 02:06:15;;;;;;;1.57;1.30;;;4.10;98.20;;;;;;5089277;28;20472;-72
2023/02/10 02:08:42;;;;;;;1.60;1.50;;;4.10;98.20;;;;;;5101898;28;20898;-72
2023/02/10 02:11:21;;;;;;;1.60;1.50;;;4.10;98.20;;;;;;5093751;28;20494;-72
2023/02/10 02:14:22;;;;;;;1.60;1.40;;;4.00;98.20;;;;;;5102243;28;20480;-72
2023/02/10 02:17:00;;;;;;;1.60;1.40;;;4.00;98.20;;;;;;5075023;28;20515;-72
2023/02/10 02:23:10;;;;;;;1.57;1.30;;;3.90;98.20;;;;;;5091908;28;20506;-73
2023/02/10 02:25:58;;;;;;;1.70;1.60;;;3.90;98.20;;;;;;5109364;28;20519;-72
2023/02/10 02:28:38;;;;;;;1.60;1.50;;;3.90;98.20;;;;;;5074876;28;21056;-72
2023/02/10 02:31:36;;;;;;;1.60;1.50;;;3.80;98.20;;;;;;5083211;28;20464;-72
2023/02/10 02:34:08;;;;;;;1.60;1.43;;;3.80;98.20;;;;;;5084037;28;20479;-72
2023/02/10 02:36:41;;;;;;;1.60;1.50;;;3.70;98.20;;;;;;5070292;27;20564;-72
2023/02/10 02:39:08;;;;;;;1.60;1.50;;;3.70;98.20;;;;;;5099750;28;20463;-73
2023/02/10 02:41:35;;;;;;;1.70;1.60;;;3.60;98.20;;;;;;5090105;28;21187;-72
2023/02/10 02:44:05;;;;;;;1.60;1.30;;;3.50;98.20;;;;;;5097796;28;21030;-72
2023/02/10 02:46:47;;;;;;;1.60;1.50;;;3.50;98.20;;;;;;5082999;28;20473;-72
2023/02/10 02:49:20;;;;;;;1.57;1.40;;;3.50;98.20;;;;;;5088338;28;20539;-72
2023/02/10 02:51:54;;;;;;;1.57;1.40;;;3.50;98.20;;;;;;5093276;28;20480;-72
2023/02/10 02:54:25;;;;;;;1.60;1.40;;;3.50;98.20;;;;;;5103124;28;20498;-73
2023/02/10 02:56:59;;;;;;;1.70;1.60;;;3.50;98.20;;;;;;5078160;28;20480;-72
2023/02/10 02:59:35;;;;;;;1.60;1.40;;;3.50;98.20;;;;;;5089527;28;20489;-72
2023/02/10 03:02:10;;;;;;;1.60;1.40;;;3.50;98.20;;;;;;5072589;28;20532;-73
2023/02/10 03:04:38;;;;;;;1.60;1.40;;;3.50;98.20;;;;;;5094777;28;20452;-72
2023/02/10 03:07:06;;;;;;;1.60;1.37;;;3.50;98.20;;;;;;5080671;28;20888;-73
2023/02/10 03:09:34;;;;;;;1.60;1.50;;;3.40;98.20;;;;;;5091381;28;20455;-72
2023/02/10 03:12:01;;;;;;;1.57;1.30;;;3.40;98.20;;;;;;5084617;28;21064;-72
2023/02/10 03:14:28;;;;;;;1.60;1.40;;;3.40;98.20;;;;;;5095862;28;20559;-71
2023/02/10 03:16:55;;;;;;;1.60;1.40;;;3.40;98.20;;;;;;5070479;28;20627;-72
2023/02/10 03:19:24;;;;;;;1.60;1.47;;;3.40;98.20;;;;;;5087057;28;20465;-72
2023/02/10 03:21:51;;;;;;;1.53;1.40;;;3.40;98.20;;;;;;5072494;28;20465;-72
2023/02/10 03:24:18;;;;;;;1.60;1.40;;;3.40;98.20;;;;;;5100205;28;20481;-72
2023/02/10 03:26:45;;;;;;;1.60;1.50;;;3.40;98.20;;;;;;5094004;28;21004;-72
2023/02/10 03:29:13;;;;;;;1.60;1.40;;;3.30;98.20;;;;;;5089776;28;20468;-72
2023/02/10 03:31:40;;;;;;;1.60;1.50;;;3.30;98.20;;;;;;5079908;28;20477;-73
2023/02/10 03:34:08;;;;;;;1.60;1.50;;;3.20;98.20;;;;;;5084314;28;20589;-72
2023/02/10 03:36:36;;;;;;;1.60;1.47;;;3.20;98.20;;;;;;5081059;28;20860;-72
2023/02/10 03:39:04;;;;;;;1.60;1.50;;;3.20;98.20;;;;;;5105090;28;20459;-71
2023/02/10 03:41:31;;;;;;;1.60;1.40;;;3.10;98.20;;;;;;5083604;28;20524;-71
2023/02/10 03:43:58;;;;;;;1.60;1.47;;;3.10;98.20;;;;;;5092082;28;20479;-72
2023/02/10 03:46:25;;;;;;;1.60;1.43;;;3.10;98.20;;;;;;5079631;28;20556;-72
2023/02/10 03:48:52;;;;;;;1.70;1.60;;;3.10;98.20;;;;;;5076420;28;20540;-72
2023/02/10 03:51:19;;;;;;;1.60;1.40;;;3.10;98.20;;;;;;5089095;28;20482;-72
2023/02/10 03:53:47;;;;;;;1.60;1.50;;;3.00;98.20;;;;;;5105793;28;20590;-71
2023/02/10 03:56:14;;;;;;;1.70;1.60;;;3.00;98.20;;;;;;5083038;28;20845;-71
2023/02/10 03:58:41;;;;;;;1.60;1.40;;;3.00;98.20;;;;;;5090126;28;20917;-72
2023/02/10 04:01:13;;;;;;;1.60;1.50;;;3.00;98.20;;;;;;5087926;28;20911;-72
2023/02/10 04:03:40;;;;;;;1.80;1.70;;;3.00;98.20;;;;;;5104640;28;20542;-71
2023/02/10 04:06:08;;;;;;;1.60;1.50;;;3.00;98.20;;;;;;5084586;28;20481;-72
2023/02/10 04:08:36;;;;;;;1.60;1.50;;;2.90;98.20;;;;;;5085222;28;20462;-71
2023/02/10 04:11:04;;;;;;;1.60;1.50;;;2.90;98.20;;;;;;5094639;28;20920;-72
2023/02/10 04:13:31;;;;;;;1.60;1.40;;;2.80;98.20;;;;;;5101972;28;20486;-72
2023/02/10 04:16:03;;;;;;;1.60;1.50;;;2.80;98.20;;;;;;5086912;28;20539;-71
2023/02/10 04:18:30;;;;;;;1.60;1.50;;;2.80;98.20;;;;;;5077944;28;20464;-71
2023/02/10 04:20:57;;;;;;;1.60;1.50;;;2.70;98.20;;;;;;5088949;28;21165;-71
2023/02/10 04:23:24;;;;;;;1.60;1.50;;;2.70;98.20;;;;;;5080813;28;20471;-71
2023/02/10 04:25:51;;;;;;;2.30;2.10;;;2.60;98.20;;;;;;5085549;28;21058;-71
2023/02/10 04:28:19;;;;;;;1.60;1.40;;;2.60;98.20;;;;;;5092741;28;20569;-71
2023/02/10 04:30:46;;;;;;;1.70;1.60;;;2.60;98.20;;;;;;5100526;28;20482;-71
2023/02/10 04:33:13;;;;;;;1.60;1.50;;;2.50;98.20;;;;;;5071790;28;20471;-71
2023/02/10 04:35:40;;;;;;;1.60;1.40;;;2.40;98.20;;;;;;5101044;28;20877;-71
2023/02/10 04:38:08;;;;;;;1.60;1.50;;;2.40;98.20;;;;;;5091298;28;20470;-71
2023/02/10 04:40:34;;;;;;;1.70;1.60;;;2.30;98.20;;;;;;5109498;28;20471;-71
2023/02/10 04:43:01;;;;;;;1.60;1.40;;;2.30;98.20;;;;;;5092636;28;20482;-71
2023/02/10 04:45:30;;;;;;;1.60;1.47;;;2.20;98.20;;;;;;5109491;28;20458;-71
2023/02/10 04:47:57;;;;;;;1.60;1.50;;;2.20;98.20;;;;;;5095805;27;20662;-71
2023/02/10 04:50:24;;;;;;;1.60;1.50;;;2.20;98.20;;;;;;5109750;28;20459;-71
2023/02/10 04:52:50;;;;;;;1.60;1.50;;;2.10;98.20;;;;;;5091273;28;20484;-71
2023/02/10 04:55:18;;;;;;;1.60;1.40;;;2.10;98.20;;;;;;5103436;28;20516;-71
2023/02/10 04:57:45;;;;;;;1.60;1.50;;;2.00;98.20;;;;;;5067087;28;20495;-71
2023/02/10 05:00:13;;;;;;;1.60;1.50;;;2.00;98.20;;;;;;5107894;28;20465;-71
2023/02/10 05:02:42;;;;;;;1.73;1.63;;;1.90;98.20;;;;;;5090988;28;20514;-71
2023/02/10 05:05:11;;;;;;;1.70;1.60;;;1.90;98.20;;;;;;5106244;28;20576;-72
2023/02/10 05:07:39;;;;;;;1.70;1.60;;;1.80;98.20;;;;;;5092783;28;20491;-71
2023/02/10 05:10:06;;;;;;;1.60;1.50;;;1.80;98.20;;;;;;5103290;28;20467;-71
2023/02/10 05:12:33;;;;;;;1.60;1.50;;;1.70;98.20;;;;;;5084875;28;20800;-71
2023/02/10 05:15:00;;;;;;;1.70;1.60;;;1.70;98.20;;;;;;5108091;28;20518;-71
2023/02/10 05:17:27;;;;;;;1.83;1.73;;;1.70;98.20;;;;;;5087063;28;21035;-71
2023/02/10 05:19:55;;;;;;;1.60;1.50;;;1.60;98.20;;;;;;5107635;28;20455;-70
2023/02/10 05:22:25;;;;;;;1.60;1.50;;;1.60;98.20;;;;;;5087989;28;20559;-70
2023/02/10 05:24:54;;;;;;;1.70;1.60;;;1.60;98.20;;;;;;5103369;28;20538;-71
2023/02/10 05:27:21;;;;;;;1.70;1.60;;;1.60;98.20;;;;;;5089582;28;21085;-71
2023/02/10 05:29:48;;;;;;;1.70;1.60;;;1.50;98.20;;;;;;5103877;28;20960;-71
2023/02/10 05:32:15;;;;;;;1.70;1.60;;;1.50;98.20;;;;;;5073153;28;20562;-72
2023/02/10 05:34:42;;;;;;;1.60;1.50;;;1.50;98.20;;;;;;5101579;28;20825;-71
2023/02/10 05:37:10;;;;;;;1.67;1.57;;;1.50;98.20;;;;;;5077321;28;20957;-70
2023/02/10 05:39:38;;;;;;;1.63;1.53;;;1.50;98.20;;;;;;5100477;28;20467;-70
2023/02/10 05:42:05;;;;;;;1.70;1.60;;;1.40;98.20;;;;;;5090543;28;20475;-71
2023/02/10 05:44:32;;;;;;;1.60;1.50;;;1.40;98.20;;;;;;5103842;28;20459;-71
2023/02/10 05:46:59;;;;;;;1.70;1.60;;;1.40;98.20;;;;;;5089657;28;20475;-70
2023/02/10 05:49:26;;;;;;;1.70;1.60;;;1.30;98.20;;;;;;5108268;28;20460;-71
2023/02/10 05:51:53;;;;;;;1.80;1.70;;;1.30;98.20;;;;;;5090999;28;20488;-70
2023/02/10 05:54:22;;;;;;;1.60;1.50;;;1.30;98.20;;;;;;5098365;28;20515;-70
2023/02/10 05:56:50;;;;;;;1.67;1.53;;;1.30;98.20;;;;;;5083227;28;20476;-71
2023/02/10 05:59:17;;;;;;;1.70;1.60;;;1.20;98.20;;;;;;5095461;28;20471;-71
2023/02/10 06:01:45;;;;;;;1.70;1.60;;;1.20;98.20;;;;;;5078478;28;20485;-72
2023/02/10 06:04:12;;;;;;;1.67;1.57;;;1.10;98.20;;;;;;5087060;28;20483;-70
2023/02/10 06:06:39;;;;;;;1.77;1.67;;;1.10;98.20;;;;;;5089018;28;20483;-71
2023/02/10 06:09:06;;;;;;;1.70;1.60;;;1.10;98.20;;;;;;5099629;28;20530;-70
2023/02/10 06:11:35;;;;;;;1.70;1.60;;;1.00;98.20;;;;;;5082839;28;20556;-70
2023/02/10 06:14:02;;;;;;;1.70;1.60;;;1.00;98.20;;;;;;5087384;28;20838;-70
2023/02/10 06:16:29;;;;;;;1.70;1.60;;;1.00;98.20;;;;;;5078285;28;20540;-72
2023/02/10 06:18:56;;;;;;;1.60;1.50;;;0.90;98.20;;;;;;5088067;28;20498;-70
2023/02/10 06:21:23;;;;;;;1.77;1.67;;;0.90;98.20;;;;;;5086330;28;20934;-70
2023/02/10 06:23:52;;;;;;;1.60;1.50;;;0.90;98.20;;;;;;5096588;28;21201;-71
2023/02/10 06:26:20;;;;;;;1.80;1.70;;;0.90;98.20;;;;;;5083397;28;20479;-71
2023/02/10 06:28:48;;;;;;;1.70;1.60;;;0.80;98.20;;;;;;5080445;28;20469;-71
2023/02/10 06:31:15;;;;;;;1.90;1.80;;;0.80;98.20;;;;;;5088473;28;20480;-71
2023/02/10 06:33:43;;;;;;;1.90;1.80;;;0.80;98.20;;;;;;5102101;28;20494;-71
2023/02/10 06:36:11;;;;;;;1.60;1.50;;;0.80;98.20;;;;;;5080402;28;20501;-71
2023/02/10 06:38:38;;;;;;;1.80;1.70;;;0.80;98.20;;;;;;5080885;28;20464;-71
2023/02/10 06:41:06;;;;;;;1.80;1.70;;;0.70;98.20;;;;;;5091182;28;20459;-71
2023/02/10 06:43:33;;;;;;;1.70;1.60;;;0.70;98.20;;;;;;5099492;28;20495;-70
2023/02/10 06:46:03;;;;;;;1.90;1.80;;;0.70;98.20;;;;;;5082660;28;20460;-69
2023/02/10 06:48:31;;;;;;;1.90;1.80;;;0.70;98.20;;;;;;5083730;28;20487;-71
2023/02/10 06:50:58;;;;;;;1.77;1.67;;;0.60;98.20;;;;;;5093101;28;20464;-71
2023/02/10 06:53:26;;;;;;;1.80;1.70;;;0.60;98.20;;;;;;5103928;28;20471;-70
2023/02/10 06:55:57;;;;;;;1.77;1.67;;;0.60;98.20;;;;;;5090876;28;20479;-69
2023/02/10 06:58:25;;;;;;;1.70;1.60;;;0.50;98.20;;;;;;5096546;28;20463;-70
2023/02/10 07:00:52;;;;;;;1.70;1.60;;;0.50;98.20;;;;;;5092489;27;20532;-70
2023/02/10 07:03:21;;;;;;;1.70;1.60;;;0.50;98.20;;;;;;5101639;28;20630;-70
2023/02/10 07:05:48;;;;;;;1.70;1.60;;;0.50;98.20;;;;;;5092023;28;20460;-70
2023/02/10 07:08:16;;;;;;;1.70;1.60;;;0.40;98.20;;;;;;5096346;28;20570;-70
2023/02/10 07:10:43;;;;;;;1.70;1.60;;;0.40;98.20;;;;;;5105728;28;20467;-70
2023/02/10 07:13:10;;;;;;;1.70;1.60;;;0.40;98.20;;;;;;5093738;28;20874;-70
2023/02/10 07:15:37;;;;;;;1.77;1.67;;;0.40;98.20;;;;;;5105379;28;20752;-71
2023/02/10 07:18:05;;;;;;;1.70;1.60;;;0.50;98.20;;;;;;5062772;28;20474;-72
2023/02/10 07:20:34;;;;;;;1.80;1.70;;;0.50;98.20;;;;;;5104662;28;20461;-71
2023/02/10 07:23:01;;;;;;;1.70;1.60;;;0.50;98.20;;;;;;5081721;28;20481;-71
2023/02/10 07:25:28;;;;;;;1.80;1.70;;;0.50;98.20;;;;;;5093599;28;20449;-70
2023/02/10 07:27:55;;;;;;;1.80;1.70;;;0.50;98.20;;;;;;5087577;28;20506;-73
2023/02/10 07:30:22;;;;;;;1.73;1.63;;;0.60;98.20;;;;;;5100229;28;20465;-71
2023/02/10 07:32:50;;;;;;;1.70;1.60;;;0.60;98.20;;;;;;5071790;28;20484;-71
2023/02/10 07:35:17;;;;;;;1.70;1.60;;;0.60;98.20;;;;;;5101560;28;20461;-71
2023/02/10 07:37:46;;;;;;;1.60;1.50;;;0.60;98.20;;;;;;5086212;28;21058;-70
2023/02/10 07:40:13;;;;;;;1.87;1.77;;;0.70;98.20;;;;;;5107757;28;20464;-71
2023/02/10 07:42:40;;;;;;;1.60;1.50;;;0.70;98.20;;;;;;5078594;28;20579;-71
2023/02/10 07:45:08;;;;;;;1.90;1.80;;;0.70;98.20;;;;;;5101127;28;20874;-71
2023/02/10 07:47:35;;;;;;;1.70;1.60;;;0.80;98.20;;;;;;5085702;28;20507;-71
2023/02/10 07:50:03;;;;;;;1.60;1.50;;;0.80;98.20;;;;;;5101665;28;20460;-71
2023/02/10 07:52:30;;;;;;;1.70;1.60;;;0.90;98.20;;;;;;5076027;28;20504;-71
2023/02/10 07:55:02;;;;;;;1.70;1.60;;;0.90;98.20;;;;;;5102084;28;20455;-71
2023/02/10 07:57:29;;;;;;;1.87;1.77;;;1.00;98.20;;;;;;5093513;28;20471;-71
2023/02/10 07:59:56;;;;;;;1.70;1.60;;;1.00;98.20;;;;;;5104351;28;20744;-72
2023/02/10 08:02:24;;;;;;;1.70;1.60;;;1.00;98.20;;;;;;5071627;28;20846;-71
2023/02/10 08:04:53;;;;;;;1.70;1.60;;;1.10;98.20;;;;;;5095201;28;20523;-71
2023/02/10 08:07:21;;;;;;;1.70;1.60;;;1.10;98.20;;;;;;5074771;28;20480;-71
2023/02/10 08:09:48;;;;;;;1.70;1.60;;;1.10;98.20;;;;;;5102260;28;20802;-72
2023/02/10 08:12:17;;;;;;;1.73;1.63;;;1.20;98.20;;;;;;5093914;28;20691;-71
2023/02/10 08:14:44;;;;;;;1.73;1.63;;;1.20;98.20;;;;;;5105431;28;20926;-70
2023/02/10 08:17:12;;;;;;;1.70;1.60;;;1.30;98.20;;;;;;5093641;28;20490;-71
2023/02/10 08:19:39;;;;;;;1.60;1.50;;;1.30;98.20;;;;;;5101594;28;20491;-71
2023/02/10 08:22:09;;;;;;;1.70;1.60;;;1.30;98.20;;;;;;5076293;28;20472;-72
2023/02/10 08:24:36;;;;;;;1.70;1.60;;;1.40;98.20;;;;;;5099649;28;20459;-71
2023/02/10 08:27:06;;;;;;;1.70;1.60;;;1.50;98.20;;;;;;5077320;28;20477;-71
2023/02/10 08:29:35;;;;;;;1.60;1.50;;;1.60;98.20;;;;;;5099660;28;20474;-70
2023/02/10 08:32:02;;;;;;;1.80;1.70;;;1.80;98.20;;;;;;5092542;28;20479;-71
2023/02/10 08:34:29;;;;;;;1.60;1.50;;;2.00;98.20;;;;;;5106189;28;20513;-70
2023/02/10 08:36:57;;;;;;;1.60;1.50;;;2.10;98.20;;;;;;5083757;28;20475;-69
2023/02/10 08:39:24;;;;;;;1.60;1.50;;;2.30;98.20;;;;;;5100618;28;20543;-70
2023/02/10 08:41:51;;;;;;;1.60;1.50;;;2.50;98.20;;;;;;5079826;28;20477;-70
2023/02/10 08:44:19;;;;;;;1.60;1.50;;;2.60;98.20;;;;;;5096350;28;20483;-71
2023/02/10 08:46:48;;;;;;;1.60;1.50;;;2.70;98.20;;;;;;5077086;28;20468;-71
2023/02/10 08:49:15;;;;;;;1.60;1.50;;;2.90;98.20;;;;;;5096229;28;20472;-72
2023/02/10 08:51:43;;;;;;;1.60;1.50;;;3.00;98.20;;;;;;5083683;28;20477;-72
2023/02/10 08:54:10;;;;;;;1.93;1.83;;;3.10;98.20;;;;;;5102005;28;20862;-71
2023/02/10 08:56:37;;;;;;;1.67;1.40;;;3.20;98.20;;;;;;5089576;28;20499;-72
2023/02/10 08:59:05;;;;;;;1.70;1.53;;;3.30;98.20;;;;;;5102526;28;20467;-73
2023/02/10 09:01:32;;;;;;;1.60;1.50;;;3.50;98.20;;;;;;5078493;28;20473;-74
2023/02/10 09:04:01;;;;;;;2.33;2.13;;;3.60;98.20;;;;;;5085885;28;21027;-72
2023/02/10 09:06:32;;;;;;;1.60;1.40;;;3.70;98.20;;;;;;5083928;28;20761;-72
2023/02/10 09:09:00;;;;;;;1.60;1.50;;;3.90;98.20;;;;;;5099939;28;20511;-73
2023/02/10 09:11:28;;;;;;;1.60;1.40;;;4.00;98.20;;;;;;5076625;28;20563;-72
2023/02/10 09:13:56;;;;;;;1.60;1.47;;;4.10;98.20;;;;;;5099551;28;20879;-73
2023/02/10 09:16:23;;;;;;;1.60;1.40;;;4.30;98.20;;;;;;5090447;28;20483;-73
2023/02/10 09:18:51;;;;;;;1.60;1.40;;;4.40;98.20;;;;;;5098313;28;20455;-73
2023/02/10 09:21:20;;;;;;;1.50;1.30;;;4.60;98.20;;;;;;5082133;28;20488;-73
2023/02/10 09:23:47;;;;;;;1.60;1.40;;;4.80;98.20;;;;;;5095216;28;20487;-73
2023/02/10 09:26:14;;;;;;;3.03;2.83;;;4.90;98.20;;;;;;5088046;28;20644;-73
2023/02/10 09:28:42;;;;;;;1.60;1.40;;;5.10;98.20;;;;;;5091652;28;20826;-73
2023/02/10 09:31:12;;;;;;;1.60;1.37;;;5.20;98.20;;;;;;5083362;28;20474;-72
2023/02/10 09:33:40;;;;;;;1.60;1.37;;;5.40;98.20;;;;;;5084377;28;20863;-72
2023/02/10 09:36:11;;;;;;;2.37;2.17;;;5.50;98.20;;;;;;5091069;28;20467;-73
2023/02/10 09:38:40;;;;;;;1.60;1.40;;;5.70;98.20;;;;;;5088845;28;20470;-72
2023/02/10 09:41:20;;;;;;;1.60;1.50;;;5.90;98.20;;;;;;5091011;28;20474;-72
2023/02/10 09:44:04;;;;;;;1.60;1.30;;;6.10;98.20;;;;;;5094462;28;20522;-72
2023/02/10 09:46:43;;;;;;;1.60;1.40;;;6.20;98.20;;;;;;5084915;28;20570;-72
2023/02/10 09:49:33;;;;;;;1.60;1.23;;;6.30;98.20;;;;;;5092776;28;20494;-72
2023/02/10 09:52:08;;;;;;;1.93;1.77;;;6.40;98.20;;;;;;5088211;28;20475;-73
2023/02/10 09:54:38;;;;;;;1.53;1.20;;;6.50;98.20;;;;;;5097583;28;20832;-72
2023/02/10 09:57:12;;;;;;;1.57;1.30;;;6.60;98.20;;;;;;5076119;28;20484;-72
2023/02/10 09:59:40;;;;;;;1.60;1.20;;;6.80;98.20;;;;;;5095380;28;20457;-72
2023/02/10 10:02:17;;;;;;;1.60;1.20;;;6.90;98.20;;;;;;5074697;28;20472;-73
2023/02/10 10:04:45;;;;;;;1.60;1.30;;;7.10;98.20;;;;;;5100802;28;20881;-73
2023/02/10 10:07:22;;;;;;;3.33;3.13;;;7.20;98.20;;;;;;5087949;28;20483;-73
2023/02/10 10:10:01;;;;;;;1.60;1.20;;;7.40;98.20;;;;;;5097061;28;21061;-73
2023/02/10 10:12:29;;;;;;;1.60;1.30;;;7.50;98.20;;;;;;5087151;28;20949;-73
2023/02/10 10:14:56;;;;;;;1.60;1.20;;;7.50;98.20;;;;;;5100859;28;20460;-73
2023/02/10 10:17:45;;;;;;;1.60;1.30;;;7.60;98.20;;;;;;5076878;28;20487;-73
2023/02/10 10:20:44;;;;;;;1.60;1.20;;;7.60;98.20;;;;;;5101194;28;20496;-73
2023/02/10 10:23:34;;;;;;;1.60;1.30;;;7.70;98.20;;;;;;5087117;28;20492;-75
2023/02/10 10:26:20;;;;;;;1.60;1.30;;;7.80;98.20;;;;;;5088901;28;20883;-72
2023/02/10 10:29:00;;;;;;;1.60;1.30;;;7.90;98.20;;;;;;5101541;28;20545;-73
2023/02/10 10:31:31;;;;;;;1.53;1.20;;;8.10;98.20;;;;;;5082576;28;20488;-74
2023/02/10 10:34:03;;;;;;;1.60;1.40;;;8.20;98.20;;;;;;5093920;28;20872;-73
2023/02/10 10:36:36;;;;;;;1.57;1.17;;;8.40;98.20;;;;;;5085266;28;20539;-73
2023/02/10 10:39:14;;;;;;;1.60;1.20;;;8.50;98.20;;;;;;5092348;28;20460;-73
2023/02/10 10:41:45;;;;;;;1.60;1.20;;;8.60;98.20;;;;;;5084537;28;20877;-73
2023/02/10 10:44:16;;;;;;;1.60;1.20;;;8.80;98.20;;;;;;5101891;28;20823;-73
2023/02/10 10:46:48;;;;;;;1.60;1.20;;;8.90;98.20;;;;;;5082175;28;20852;-73
2023/02/10 10:49:16;;;;;;;1.60;1.20;;;9.00;98.20;;;;;;5096817;28;20488;-73
2023/02/10 10:51:47;;;;;;;1.60;1.30;;;9.00;98.20;;;;;;5087417;28;20622;-73
2023/02/10 10:54:19;;;;;;;1.60;1.40;;;9.10;98.20;;;;;;5098594;28;20484;-73
2023/02/10 10:56:51;;;;;;;1.57;1.20;;;9.20;98.20;;;;;;5090945;28;20788;-73
2023/02/10 10:59:26;;;;;;;1.57;1.10;;;9.20;98.20;;;;;;5103086;28;20452;-73
2023/02/10 11:01:54;;;;;;;1.60;1.20;;;9.40;98.20;;;;;;5089027;28;20521;-73
2023/02/10 11:04:25;;;;;;;1.60;1.20;;;9.40;98.20;;;;;;5094819;28;20983;-74
2023/02/10 11:06:56;;;;;;;1.60;1.20;;;9.50;98.20;;;;;;5082906;28;21003;-74
2023/02/10 11:09:28;;;;;;;1.60;1.20;;;9.70;98.20;;;;;;5100173;28;20484;-74
2023/02/10 11:12:04;;;;;;;1.53;1.10;;;9.80;98.20;;;;;;5080173;28;20579;-73
2023/02/10 11:14:40;;;;;;;1.70;1.20;;;10.00;98.20;;;;;;5097243;28;20554;-73
2023/02/10 11:17:20;;;;;;;1.60;1.40;;;10.10;98.20;;;;;;5076645;28;20472;-73
2023/02/10 11:19:56;;;;;;;1.57;1.20;;;10.20;98.20;;;;;;5098062;28;20932;-73
2023/02/10 11:22:23;;;;;;;1.60;1.20;;;10.20;98.20;;;;;;5078896;28;20604;-73
2023/02/10 11:24:52;;;;;;;1.60;1.10;;;10.30;98.20;;;;;;5098974;28;20468;-72
2023/02/10 11:27:22;;;;;;;1.57;1.10;;;10.50;98.20;;;;;;5076424;28;20856;-72
2023/02/10 11:29:52;;;;;;;1.60;1.20;;;10.60;98.20;;;;;;5091438;28;20979;-72
2023/02/10 11:32:22;;;;;;;1.53;1.10;;;10.70;98.20;;;;;;5083681;28;20486;-72
2023/02/10 11:34:51;;;;;;;1.60;1.20;;;10.80;98.00;;;;;;5089094;28;20927;-72
2023/02/10 11:37:26;;;;;;;1.60;1.10;;;10.80;97.90;;;;;;5068082;28;21248;-72
2023/02/10 11:39:56;;;;;;;1.60;1.17;;;10.90;97.40;;;;;;5098404;28;20460;-72
2023/02/10 11:42:27;;;;;;;1.57;1.10;;;11.00;96.40;;;;;;5069658;28;20472;-72
2023/02/10 11:44:58;;;;;;;1.60;1.30;;;11.00;95.60;;;;;;5097246;28;20466;-72
2023/02/10 11:47:27;;;;;;;1.60;1.20;;;11.00;95.70;;;;;;5071439;28;20863;-73
2023/02/10 11:49:55;;;;;;;1.60;1.10;;;11.00;95.70;;;;;;5095870;28;20883;-72
2023/02/10 11:52:25;;;;;;;1.53;1.00;;;11.10;94.80;;;;;;5086546;28;20507;-72
2023/02/10 11:54:53;;;;;;;1.60;1.20;;;11.10;94.90;;;;;;5101098;28;20870;-73
2023/02/10 12:00:30;;;;;;;1.53;1.10;;;11.10;95.40;;;;;;5097239;28;20473;-74
2023/02/10 12:03:30;;;;;;;1.57;1.10;;;11.10;95.20;;;;;;5085590;28;20523;-72
2023/02/10 12:06:06;;;;;;;1.60;1.10;;;11.10;95.60;;;;;;5088161;28;20558;-72
2023/02/10 12:08:42;;;;;;;1.57;1.10;;;11.10;95.60;;;;;;5097379;28;20793;-71
2023/02/10 12:11:16;;;;;;;1.57;1.00;;;11.20;96.20;;;;;;5087560;28;20483;-72
2023/02/10 12:13:53;;;;;;;1.57;1.10;;;11.30;96.30;;;;;;5080020;28;20478;-72
2023/02/10 12:16:27;;;;;;;1.60;1.10;;;11.30;94.60;;;;;;5087474;28;20475;-72
2023/02/10 12:19:01;;;;;;;1.60;1.20;;;11.30;95.00;;;;;;5096885;28;20455;-72
2023/02/10 12:22:04;;;;;;;1.53;1.03;;;11.40;95.50;;;;;;5083996;28;20626;-73
2023/02/10 12:24:46;;;;;;;1.57;1.03;;;11.40;95.10;;;;;;5078548;28;20491;-73
2023/02/10 12:27:20;;;;;;;1.50;1.10;;;11.40;95.70;;;;;;5085671;28;20591;-72
2023/02/10 12:30:02;;;;;;;1.57;1.10;;;11.40;96.10;;;;;;5095504;28;20583;-72
2023/02/10 12:32:46;;;;;;;1.60;1.20;;;11.40;95.50;;;;;;5062967;28;20492;-72
2023/02/10 12:35:30;;;;;;;1.57;1.00;;;11.50;95.20;;;;;;5097003;28;20463;-72
2023/02/10 12:38:08;;;;;;;1.60;1.10;;;11.50;94.40;;;;;;5081252;28;20529;-72
2023/02/10 12:40:49;;;;;;;1.60;1.10;;;11.30;93.20;;;;;;5098508;28;20708;-72
2023/02/10 12:43:35;;;;;;;1.60;1.10;;;11.20;94.20;;;;;;5067225;28;20857;-72
2023/02/10 12:46:17;;;;;;;1.60;1.40;;;11.20;94.10;;;;;;5081683;28;20464;-72
2023/02/10 12:48:50;;;;;;;1.60;1.20;;;11.20;95.20;;;;;;5087504;28;20495;-72
2023/02/10 12:51:34;;;;;;;3.30;3.00;;;11.10;94.90;;;;;;5085613;28;20551;-73
2023/02/10 12:54:09;;;;;;;1.60;1.10;;;11.10;95.60;;;;;;5095526;28;20480;-72
2023/02/10 12:56:41;;;;;;;1.60;1.10;;;11.10;96.00;;;;;;5084362;28;20522;-72
2023/02/10 12:59:15;;;;;;;1.70;1.47;;;11.10;96.20;;;;;;5096803;28;20558;-73
2023/02/10 13:01:49;;;;;;;1.60;1.10;;;11.10;95.70;;;;;;5091016;28;20952;-72
2023/02/10 13:04:23;;;;;;;5.63;2.60;;;11.10;95.30;;;;;;5100749;28;20478;-72
2023/02/10 13:06:56;;;;;;;1.53;1.10;;;11.10;95.60;;;;;;5087362;28;20470;-72
2023/02/10 13:09:32;;;;;;;1.50;1.00;;;11.00;95.00;;;;;;5102418;28;20482;-72
2023/02/10 13:12:14;;;;;;;1.50;1.00;;;11.00;94.80;;;;;;5076126;28;20492;-73
2023/02/10 13:14:44;;;;;;;1.60;1.10;;;11.00;94.80;;;;;;5096740;28;20860;-72
2023/02/10 13:17:13;;;;;;;1.80;1.57;;;10.80;94.40;;;;;;5073300;28;20550;-71